createdAt,value
2018-01-20T00:01:11.951Z,92.70
2018-01-20T00:03:39.002Z,92.50
2018-01-20T00:06:07.182Z,92.50
2018-01-20T00:08:34.029Z,92.40
2018-01-20T00:11:13.643Z,92.40
2018-01-20T00:13:41.341Z,92.30
2018-01-20T00:16:08.177Z,92.30
2018-01-20T00:18:36.839Z,92.10
2018-01-20T00:21:04.648Z,92.00
2018-01-20T00:23:31.906Z,92.00
2018-01-20T00:28:54.639Z,92.20
2018-01-20T00:31:22.127Z,92.20
2018-01-20T00:33:49.388Z,92.30
2018-01-20T00:36:16.744Z,92.30
2018-01-20T00:38:44.066Z,92.10
2018-01-20T00:41:11.874Z,92.00
2018-01-20T00:43:39.308Z,92.10
2018-01-20T00:46:07.298Z,92.20
2018-01-20T00:48:34.468Z,92.20
2018-01-20T00:51:03.197Z,92.20
2018-01-20T00:53:30.347Z,92.20
2018-01-20T00:55:57.570Z,92.20
2018-01-20T00:58:25.650Z,92.20
2018-01-20T01:00:54.438Z,92.10
2018-01-20T01:03:24.036Z,92.10
2018-01-20T01:05:53.358Z,92.10
2018-01-20T01:08:20.755Z,92.00
2018-01-20T01:10:47.873Z,92.20
2018-01-20T01:13:15.087Z,92.20
2018-01-20T01:15:42.181Z,92.20
2018-01-20T01:18:09.353Z,92.40
2018-01-20T01:20:36.494Z,92.30
2018-01-20T01:23:04.162Z,92.30
2018-01-20T01:25:31.730Z,92.30
2018-01-20T01:28:00.419Z,92.10
2018-01-20T01:30:27.163Z,92.50
2018-01-20T01:32:54.217Z,92.20
2018-01-20T01:35:21.580Z,92.20
2018-01-20T01:37:48.452Z,92.10
2018-01-20T01:40:15.480Z,92.10
2018-01-20T01:42:42.739Z,92.30
2018-01-20T01:45:10.108Z,92.30
2018-01-20T01:47:44.214Z,92.20
2018-01-20T01:50:11.149Z,92.30
2018-01-20T01:52:38.321Z,92.40
2018-01-20T01:55:07.829Z,92.40
2018-01-20T01:57:35.087Z,92.20
2018-01-20T02:00:02.347Z,92.40
2018-01-20T02:02:29.601Z,92.20
2018-01-20T02:04:56.960Z,92.10
2018-01-20T02:07:24.123Z,92.20
2018-01-20T02:09:51.376Z,92.10
2018-01-20T02:12:18.144Z,92.50
2018-01-20T02:14:45.307Z,92.10
2018-01-20T02:17:12.827Z,92.20
2018-01-20T02:19:42.335Z,92.40
2018-01-20T02:22:10.676Z,92.60
2018-01-20T02:24:37.890Z,92.60
2018-01-20T02:27:04.746Z,92.40
2018-01-20T02:29:32.102Z,92.30
2018-01-20T02:32:01.098Z,92.20
2018-01-20T02:34:28.052Z,92.20
2018-01-20T02:36:54.794Z,92.20
2018-01-20T02:39:22.561Z,92.40
2018-01-20T02:41:50.477Z,92.10
2018-01-20T02:44:18.924Z,92.10
2018-01-20T02:46:46.084Z,92.10
2018-01-20T02:49:12.928Z,92.10
2018-01-20T02:51:39.877Z,92.30
2018-01-20T02:54:07.544Z,92.10
2018-01-20T02:56:34.495Z,92.20
2018-01-20T02:59:01.552Z,92.10
2018-01-20T03:01:28.918Z,92.10
2018-01-20T03:03:55.965Z,92.30
2018-01-20T03:06:23.775Z,92.30
2018-01-20T03:08:50.992Z,92.50
2018-01-20T03:11:18.249Z,92.60
2018-01-20T03:13:46.016Z,92.70
2018-01-20T03:16:13.688Z,92.60
2018-01-20T03:18:41.920Z,92.70
2018-01-20T03:21:08.609Z,92.80
2018-01-20T03:23:35.866Z,92.70
2018-01-20T03:26:03.523Z,92.70
2018-01-20T03:28:30.799Z,92.80
2018-01-20T03:30:58.055Z,92.60
2018-01-20T03:33:25.103Z,92.60
2018-01-20T03:35:53.898Z,92.50
2018-01-20T03:38:20.745Z,92.40
2018-01-20T03:40:47.799Z,92.40
2018-01-20T03:43:15.672Z,92.20
2018-01-20T03:45:42.519Z,92.40
2018-01-20T03:48:09.469Z,92.50
2018-01-20T03:50:36.420Z,92.70
2018-01-20T03:53:05.920Z,92.60
2018-01-20T03:55:32.880Z,92.60
2018-01-20T03:58:00.107Z,92.40
2018-01-20T04:00:27.807Z,92.60
2018-01-20T04:02:54.858Z,92.60
2018-01-20T04:05:21.955Z,92.80
2018-01-20T04:07:49.403Z,92.90
2018-01-20T04:10:16.632Z,92.90
2018-01-20T04:12:43.348Z,93.10
2018-01-20T04:15:11.417Z,93.00
2018-01-20T04:17:40.424Z,92.70
2018-01-20T04:20:07.227Z,92.70
2018-01-20T04:22:34.769Z,92.70
2018-01-20T04:25:01.616Z,92.60
2018-01-20T04:27:28.360Z,92.70
2018-01-20T04:29:55.210Z,92.60
2018-01-20T04:32:23.082Z,92.70
2018-01-20T04:34:50.715Z,92.60
2018-01-20T04:37:18.312Z,92.60
2018-01-20T04:39:45.137Z,92.50
2018-01-20T04:42:12.011Z,92.60
2018-01-20T04:44:38.904Z,92.60
2018-01-20T04:47:06.415Z,92.60
2018-01-20T04:49:33.435Z,92.90
2018-01-20T04:52:01.244Z,93.20
2018-01-20T04:54:28.608Z,93.00
2018-01-20T04:56:55.765Z,92.60
2018-01-20T04:59:23.227Z,92.50
2018-01-20T05:01:51.714Z,92.60
2018-01-20T05:04:18.819Z,92.80
2018-01-20T05:06:45.620Z,92.90
2018-01-20T05:09:12.667Z,92.80
2018-01-20T05:11:39.620Z,92.80
2018-01-20T05:14:08.004Z,92.90
2018-01-20T05:16:35.771Z,92.80
2018-01-20T05:19:02.997Z,92.80
2018-01-20T05:21:31.000Z,92.90
2018-01-20T05:23:57.796Z,92.90
2018-01-20T05:26:24.706Z,92.70
2018-01-20T05:28:52.472Z,92.80
2018-01-20T05:31:20.233Z,92.80
2018-01-20T05:33:47.086Z,92.70
2018-01-20T05:36:14.655Z,92.80
2018-01-20T05:38:43.756Z,92.90
2018-01-20T05:41:10.762Z,92.80
2018-01-20T05:43:38.790Z,92.70
2018-01-20T05:46:06.036Z,92.70
2018-01-20T05:48:32.987Z,92.70
2018-01-20T05:51:00.757Z,92.70
2018-01-20T05:53:27.995Z,92.70
2018-01-20T05:55:54.967Z,92.70
2018-01-20T05:58:21.918Z,92.70
2018-01-20T06:00:51.225Z,92.90
2018-01-20T06:03:18.276Z,92.80
2018-01-20T06:05:45.430Z,92.90
2018-01-20T06:08:14.123Z,93.00
2018-01-20T06:10:41.075Z,93.20
2018-01-20T06:13:09.237Z,93.20
2018-01-20T06:15:36.906Z,93.20
2018-01-20T06:18:04.588Z,93.00
2018-01-20T06:20:32.868Z,92.90
2018-01-20T06:23:00.834Z,92.80
2018-01-20T06:25:28.109Z,92.80
2018-01-20T06:27:55.359Z,92.70
2018-01-20T06:30:22.412Z,92.70
2018-01-20T06:32:49.164Z,92.70
2018-01-20T06:35:16.400Z,92.70
2018-01-20T06:37:43.875Z,92.90
2018-01-20T06:40:10.831Z,92.80
2018-01-20T06:42:38.089Z,93.00
2018-01-20T06:45:05.036Z,93.00
2018-01-20T06:47:32.297Z,92.90
2018-01-20T06:49:59.393Z,92.90
2018-01-20T06:52:28.141Z,92.90
2018-01-20T06:54:55.196Z,92.90
2018-01-20T06:57:23.065Z,92.90
2018-01-20T06:59:50.223Z,93.00
2018-01-20T07:02:17.482Z,92.80
2018-01-20T07:04:45.044Z,92.70
2018-01-20T07:07:12.752Z,92.70
2018-01-20T07:09:40.992Z,92.80
2018-01-20T07:12:08.029Z,92.80
2018-01-20T07:14:36.224Z,93.00
2018-01-20T07:17:03.485Z,93.00
2018-01-20T07:19:31.197Z,92.90
2018-01-20T07:21:58.919Z,92.80
2018-01-20T07:24:26.176Z,92.70
2018-01-20T07:26:53.108Z,92.50
2018-01-20T07:29:20.268Z,92.40
2018-01-20T07:31:47.848Z,92.30
2018-01-20T07:34:16.731Z,92.30
2018-01-20T07:36:44.151Z,92.50
2018-01-20T07:39:10.879Z,92.50
2018-01-20T07:41:37.597Z,92.60
2018-01-20T07:44:04.674Z,92.60
2018-01-20T07:46:33.241Z,92.60
2018-01-20T07:49:00.190Z,92.60
2018-01-20T07:51:27.450Z,92.40
2018-01-20T07:53:54.605Z,92.10
2018-01-20T07:56:22.374Z,92.00
2018-01-20T07:58:51.167Z,91.90
2018-01-20T08:01:18.217Z,92.10
2018-01-20T08:03:46.091Z,92.30
2018-01-20T08:06:13.410Z,92.30
2018-01-20T08:08:42.625Z,92.20
2018-01-20T08:11:10.206Z,92.20
2018-01-20T08:13:38.601Z,92.00
2018-01-20T08:16:06.063Z,92.00
2018-01-20T08:18:33.535Z,92.10
2018-01-20T08:21:00.888Z,92.20
2018-01-20T08:23:29.529Z,92.50
2018-01-20T08:25:57.452Z,92.60
2018-01-20T08:28:26.323Z,92.50
2018-01-20T08:30:54.217Z,92.00
2018-01-20T08:33:22.193Z,91.90
2018-01-20T08:35:49.039Z,91.80
2018-01-20T08:38:15.779Z,92.00
2018-01-20T08:40:42.942Z,92.00
2018-01-20T08:43:10.816Z,92.10
2018-01-20T08:45:38.076Z,92.10
2018-01-20T08:48:06.152Z,91.90
2018-01-20T08:50:34.072Z,91.90
2018-01-20T08:53:02.799Z,92.00
2018-01-20T08:55:29.970Z,92.00
2018-01-20T08:57:57.332Z,92.10
2018-01-20T09:00:24.382Z,92.20
2018-01-20T09:02:52.972Z,92.20
2018-01-20T09:05:21.781Z,92.20
2018-01-20T09:07:51.240Z,92.00
2018-01-20T09:10:21.613Z,91.80
2018-01-20T09:12:53.616Z,91.80
2018-01-20T09:15:23.193Z,91.50
2018-01-20T09:17:53.565Z,91.60
2018-01-20T09:20:24.352Z,91.70
2018-01-20T09:22:52.318Z,91.40
2018-01-20T09:25:21.534Z,91.30
2018-01-20T09:27:49.387Z,91.20
2018-01-20T09:30:17.469Z,90.80
2018-01-20T09:32:45.243Z,91.10
2018-01-20T09:35:12.192Z,91.00
2018-01-20T09:37:39.348Z,91.30
2018-01-20T09:40:06.401Z,91.50
2018-01-20T09:42:34.171Z,91.70
2018-01-20T09:45:01.326Z,91.70
2018-01-20T09:47:28.559Z,91.50
2018-01-20T09:49:56.352Z,92.10
2018-01-20T09:52:23.734Z,92.20
2018-01-20T09:54:50.666Z,92.70
2018-01-20T09:57:17.439Z,93.00
2018-01-20T09:59:45.076Z,93.10
2018-01-20T10:02:12.055Z,93.30
2018-01-20T10:04:40.443Z,93.50
2018-01-20T10:07:07.671Z,93.40
2018-01-20T10:09:34.555Z,92.40
2018-01-20T10:12:01.673Z,92.00
2018-01-20T10:14:29.138Z,91.60
2018-01-20T10:16:56.293Z,90.90
2018-01-20T10:19:23.447Z,90.60
2018-01-20T10:21:50.194Z,90.90
2018-01-20T10:24:17.347Z,91.30
2018-01-20T10:26:44.199Z,92.00
2018-01-20T10:29:11.149Z,92.00
2018-01-20T10:31:38.201Z,91.90
2018-01-20T10:34:06.175Z,92.00
2018-01-20T10:36:32.922Z,92.20
2018-01-20T10:38:59.876Z,92.80
2018-01-20T10:41:26.723Z,92.40
2018-01-20T10:43:53.777Z,92.50
2018-01-20T10:46:20.628Z,92.70
2018-01-20T10:48:47.675Z,92.50
2018-01-20T10:51:14.499Z,92.40
2018-01-20T10:53:41.270Z,92.50
2018-01-20T10:56:08.528Z,92.90
2018-01-20T10:58:35.993Z,92.90
2018-01-20T11:01:03.358Z,92.50
2018-01-20T11:03:31.022Z,92.70
2018-01-20T11:05:58.276Z,92.90
2018-01-20T11:08:25.328Z,92.80
2018-01-20T11:10:52.279Z,92.80
2018-01-20T11:13:19.104Z,92.80
2018-01-20T11:15:45.990Z,92.80
2018-01-20T11:18:12.927Z,93.00
2018-01-20T11:20:39.883Z,93.00
2018-01-20T11:23:06.719Z,92.80
2018-01-20T11:25:35.011Z,92.40
2018-01-20T11:28:02.986Z,92.40
2018-01-20T11:30:29.835Z,92.30
2018-01-20T11:32:57.498Z,92.60
2018-01-20T11:35:24.555Z,92.40
2018-01-20T11:37:51.914Z,92.40
2018-01-20T11:40:18.764Z,92.60
2018-01-20T11:42:45.608Z,92.40
2018-01-20T11:45:13.082Z,92.50
2018-01-20T11:47:40.022Z,92.40
2018-01-20T11:50:07.693Z,92.20
2018-01-20T11:52:35.260Z,92.10
2018-01-20T11:55:02.116Z,91.90
2018-01-20T11:57:28.938Z,92.30
2018-01-20T11:59:56.619Z,92.30
2018-01-20T12:02:23.369Z,92.20
2018-01-20T12:04:50.218Z,92.30
2018-01-20T12:07:18.296Z,92.20
2018-01-20T12:09:45.037Z,92.30
2018-01-20T12:12:11.784Z,92.00
2018-01-20T12:14:38.535Z,92.20
2018-01-20T12:17:05.276Z,92.20
2018-01-20T12:19:32.534Z,91.80
2018-01-20T12:21:59.487Z,92.10
2018-01-20T12:24:26.230Z,91.90
2018-01-20T12:26:52.979Z,91.90
2018-01-20T12:29:19.933Z,92.10
2018-01-20T12:31:46.879Z,91.70
2018-01-20T12:34:13.628Z,91.90
2018-01-20T12:36:40.476Z,92.10
2018-01-20T12:39:07.323Z,92.00
2018-01-20T12:41:34.068Z,92.10
2018-01-20T12:44:01.019Z,91.60
2018-01-20T12:46:27.969Z,91.40
2018-01-20T12:48:54.893Z,91.70
2018-01-20T12:51:22.340Z,91.90
2018-01-20T12:53:49.234Z,91.80
2018-01-20T12:56:16.188Z,92.10
2018-01-20T12:58:43.034Z,92.10
2018-01-20T13:01:10.190Z,92.40
2018-01-20T13:03:36.941Z,92.60
2018-01-20T13:06:03.950Z,92.80
2018-01-20T13:08:31.552Z,92.70
2018-01-20T13:10:58.404Z,92.70
2018-01-20T13:13:26.044Z,92.80
2018-01-20T13:15:54.861Z,93.10
2018-01-20T13:18:21.607Z,93.00
2018-01-20T13:20:48.352Z,93.20
2018-01-20T13:23:15.100Z,93.20
2018-01-20T13:25:41.849Z,93.30
2018-01-20T13:28:08.697Z,93.20
2018-01-20T13:30:36.361Z,93.10
2018-01-20T13:33:03.221Z,93.10
2018-01-20T13:35:29.956Z,93.50
2018-01-20T13:37:56.799Z,93.70
2018-01-20T13:40:24.270Z,93.60
2018-01-20T13:42:51.013Z,93.60
2018-01-20T13:45:18.071Z,93.50
2018-01-20T13:47:45.123Z,93.50
2018-01-20T13:50:12.481Z,93.40
2018-01-20T13:52:39.328Z,93.30
2018-01-20T13:55:07.305Z,93.20
2018-01-20T13:57:34.258Z,93.30
2018-01-20T14:00:01.104Z,93.40
2018-01-20T14:02:27.850Z,93.50
2018-01-20T14:04:55.014Z,93.50
2018-01-20T14:07:21.729Z,93.70
2018-01-20T14:09:50.240Z,93.80
2018-01-20T14:12:17.395Z,93.80
2018-01-20T14:14:44.445Z,93.90
2018-01-20T14:17:11.604Z,93.90
2018-01-20T14:19:38.475Z,93.80
2018-01-20T14:22:05.196Z,93.70
2018-01-20T14:24:32.556Z,93.70
2018-01-20T14:26:59.408Z,93.60
2018-01-20T14:29:26.151Z,93.50
2018-01-20T14:31:53.208Z,93.40
2018-01-20T14:34:19.877Z,93.60
2018-01-20T14:36:47.005Z,93.60
2018-01-20T14:39:13.852Z,93.70
2018-01-20T14:41:40.804Z,93.60
2018-01-20T14:44:07.963Z,93.50
2018-01-20T14:46:34.701Z,93.50
2018-01-20T14:49:02.181Z,93.50
2018-01-20T14:51:29.221Z,93.60
2018-01-20T14:53:55.974Z,93.50
2018-01-20T14:56:22.918Z,93.30
2018-01-20T14:58:49.873Z,93.30
2018-01-20T15:01:16.720Z,93.30
2018-01-20T15:03:43.978Z,93.30
2018-01-20T15:06:11.236Z,93.30
2018-01-20T15:08:38.220Z,93.30
2018-01-20T15:11:05.750Z,93.40
2018-01-20T15:13:33.322Z,93.40
2018-01-20T15:16:00.371Z,93.40
2018-01-20T15:18:27.220Z,93.40
2018-01-20T15:20:53.964Z,93.40
2018-01-20T15:23:20.711Z,93.30
2018-01-20T15:25:47.559Z,93.30
2018-01-20T15:28:14.305Z,93.30
2018-01-20T15:30:41.051Z,93.30
2018-01-20T15:33:07.773Z,93.20
2018-01-20T15:35:35.361Z,93.20
2018-01-20T15:38:02.246Z,93.10
2018-01-20T15:40:29.059Z,93.50
2018-01-20T15:42:55.805Z,93.10
2018-01-20T15:45:22.556Z,93.00
2018-01-20T15:47:49.442Z,92.90
2018-01-20T15:50:16.145Z,92.90
2018-01-20T15:52:43.102Z,92.80
2018-01-20T15:55:10.047Z,92.90
2018-01-20T15:57:38.026Z,92.80
2018-01-20T16:00:04.772Z,92.80
2018-01-20T16:02:33.565Z,92.90
2018-01-20T16:05:00.513Z,92.90
2018-01-20T16:07:27.257Z,92.80
2018-01-20T16:09:54.004Z,92.70
2018-01-20T16:12:21.778Z,92.70
2018-01-20T16:14:48.626Z,92.70
2018-01-20T16:17:15.575Z,92.70
2018-01-20T16:19:42.731Z,92.60
2018-01-20T16:22:09.888Z,92.70
2018-01-20T16:24:37.040Z,92.80
2018-01-20T16:27:03.993Z,92.90
2018-01-20T16:29:31.047Z,92.90
2018-01-20T16:31:57.790Z,92.80
2018-01-20T16:34:24.640Z,92.70
2018-01-20T16:36:51.404Z,92.60
2018-01-20T16:39:18.338Z,92.60
2018-01-20T16:41:45.189Z,92.70
2018-01-20T16:44:12.037Z,92.90
2018-01-20T16:46:38.779Z,92.60
2018-01-20T16:49:05.940Z,92.30
2018-01-20T16:51:32.886Z,92.30
2018-01-20T16:53:59.735Z,92.30
2018-01-20T16:56:29.278Z,92.20
2018-01-20T16:58:53.642Z,92.90
2018-01-20T17:01:20.792Z,92.60
2018-01-20T17:03:47.646Z,92.50
2018-01-20T17:06:14.387Z,92.50
2018-01-20T17:08:41.132Z,92.90
2018-01-20T17:11:07.878Z,92.80
2018-01-20T17:13:36.268Z,92.60
2018-01-20T17:16:03.144Z,92.60
2018-01-20T17:18:29.859Z,92.70
2018-01-20T17:20:56.604Z,92.50
2018-01-20T17:23:23.456Z,92.30
2018-01-20T17:25:51.201Z,92.10
2018-01-20T17:28:18.890Z,92.20
2018-01-20T17:30:45.634Z,92.10
2018-01-20T17:33:12.359Z,92.20
2018-01-20T17:35:39.845Z,92.10
2018-01-20T17:38:06.593Z,92.40
2018-01-20T17:40:33.850Z,91.80
2018-01-20T17:43:00.699Z,91.60
2018-01-20T17:45:27.446Z,91.80
2018-01-20T17:47:54.193Z,91.70
2018-01-20T17:50:21.038Z,91.50
2018-01-20T17:52:49.216Z,91.50
2018-01-20T17:55:16.820Z,91.50
2018-01-20T17:57:43.629Z,91.70
2018-01-20T18:00:10.789Z,91.90
2018-01-20T18:02:37.534Z,91.80
2018-01-20T18:05:05.918Z,92.20
2018-01-20T18:07:32.768Z,92.60
2018-01-20T18:09:59.906Z,92.10
2018-01-20T18:12:27.376Z,92.00
2018-01-20T18:14:55.049Z,92.00
2018-01-20T18:17:22.209Z,92.50
2018-01-20T18:19:49.874Z,92.10
2018-01-20T18:22:16.565Z,91.90
2018-01-20T18:24:43.368Z,91.90
2018-01-20T18:27:10.216Z,91.90
2018-01-20T18:29:37.372Z,91.60
2018-01-20T18:32:04.115Z,91.60
2018-01-20T18:34:30.836Z,91.50
2018-01-20T18:36:57.914Z,91.40
2018-01-20T18:39:25.070Z,91.50
2018-01-20T18:41:51.819Z,91.80
2018-01-20T18:44:18.562Z,91.60
2018-01-20T18:46:45.284Z,91.40
2018-01-20T18:49:12.975Z,91.10
2018-01-20T18:51:39.721Z,91.10
2018-01-20T18:54:06.469Z,90.90
2018-01-20T18:56:34.038Z,90.80
2018-01-20T18:59:00.986Z,90.80
2018-01-20T19:01:28.141Z,91.00
2018-01-20T19:03:54.989Z,91.00
2018-01-20T19:06:21.840Z,91.00
2018-01-20T19:08:48.691Z,91.00
2018-01-20T19:11:15.848Z,91.00
2018-01-20T19:13:42.690Z,91.10
2018-01-20T19:16:09.440Z,91.20
2018-01-20T19:18:36.288Z,91.20
2018-01-20T19:21:03.237Z,91.10
2018-01-20T19:23:30.094Z,91.10
2018-01-20T19:25:56.810Z,91.40
2018-01-20T19:28:23.576Z,91.20
2018-01-20T19:30:50.427Z,90.90
2018-01-20T19:33:17.174Z,91.00
2018-01-20T19:35:44.227Z,90.70
2018-01-20T19:38:10.971Z,90.70
2018-01-20T19:40:37.819Z,90.90
2018-01-20T19:43:04.879Z,90.70
2018-01-20T19:45:31.619Z,90.60
2018-01-20T19:47:58.569Z,90.60
2018-01-20T19:50:25.320Z,90.60
2018-01-20T19:52:52.062Z,91.00
2018-01-20T19:55:18.914Z,91.10
2018-01-20T19:57:45.760Z,90.80
2018-01-20T20:00:13.020Z,90.70
2018-01-20T20:02:39.972Z,90.60
2018-01-20T20:05:06.823Z,91.00
2018-01-20T20:07:33.572Z,91.20
2018-01-20T20:10:00.420Z,90.80
2018-01-20T20:12:27.263Z,90.50
2018-01-20T20:14:54.001Z,90.30
2018-01-20T20:17:20.859Z,90.40
2018-01-20T20:19:47.604Z,90.10
2018-01-20T20:22:14.463Z,90.00
2018-01-20T20:24:41.196Z,90.20
2018-01-20T20:27:08.234Z,90.20
2018-01-20T20:29:35.100Z,90.20
2018-01-20T20:32:01.949Z,91.20
2018-01-20T20:34:30.757Z,91.10
2018-01-20T20:36:57.460Z,90.40
2018-01-20T20:39:25.055Z,91.10
2018-01-20T20:41:52.823Z,91.10
2018-01-20T20:44:19.567Z,91.60
2018-01-20T20:46:46.418Z,91.70
2018-01-20T20:49:13.263Z,91.00
2018-01-20T20:51:40.015Z,90.70
2018-01-20T20:54:06.758Z,90.30
2018-01-20T20:56:33.711Z,90.10
2018-01-20T20:59:00.456Z,90.50
2018-01-20T21:01:27.509Z,91.10
2018-01-20T21:03:54.572Z,90.50
2018-01-20T21:06:21.305Z,90.30
2018-01-20T21:08:48.359Z,90.20
2018-01-20T21:11:15.114Z,90.40
2018-01-20T21:13:42.264Z,90.80
2018-01-20T21:16:09.115Z,90.70
2018-01-20T21:18:35.960Z,90.40
2018-01-20T21:21:02.912Z,91.00
2018-01-20T21:23:29.658Z,91.10
2018-01-20T21:25:57.474Z,91.70
2018-01-20T21:28:24.176Z,91.90
2018-01-20T21:30:51.129Z,91.70
2018-01-20T21:33:17.871Z,91.50
2018-01-20T21:35:44.618Z,91.30
2018-01-20T21:38:18.425Z,90.80
2018-01-20T21:40:45.376Z,90.30
2018-01-20T21:43:12.432Z,89.40
2018-01-20T21:45:39.223Z,89.60
2018-01-20T21:48:06.020Z,90.20
2018-01-20T21:50:32.767Z,91.00
2018-01-20T21:53:00.230Z,90.60
2018-01-20T21:55:27.081Z,90.00
2018-01-20T21:57:54.034Z,90.20
2018-01-20T22:00:28.042Z,89.70
2018-01-20T22:02:54.997Z,89.00
2018-01-20T22:05:21.945Z,90.60
2018-01-20T22:07:49.919Z,91.50
2018-01-20T22:10:16.578Z,91.50
2018-01-20T22:12:43.307Z,91.10
2018-01-20T22:15:10.258Z,91.20
2018-01-20T22:17:37.413Z,91.40
2018-01-20T22:20:04.264Z,91.40
2018-01-20T22:22:31.116Z,91.70
2018-01-20T22:24:58.479Z,91.50
2018-01-20T22:27:25.322Z,91.60
2018-01-20T22:29:52.168Z,91.10
2018-01-20T22:32:19.112Z,90.80
2018-01-20T22:34:45.973Z,90.70
2018-01-20T22:37:13.129Z,90.80
2018-01-20T22:39:40.074Z,91.20
2018-01-20T22:42:06.924Z,91.10
2018-01-20T22:44:33.668Z,91.10
2018-01-20T22:47:00.517Z,90.20
2018-01-20T22:49:27.470Z,88.90
2018-01-20T22:51:54.151Z,90.40
2018-01-20T22:54:21.067Z,91.70
2018-01-20T22:56:48.222Z,91.50
2018-01-20T22:59:14.940Z,90.60
2018-01-20T23:01:42.634Z,90.70
2018-01-20T23:04:09.484Z,90.70
2018-01-20T23:06:36.503Z,91.50
2018-01-20T23:09:04.101Z,91.60
2018-01-20T23:11:30.824Z,91.50
2018-01-20T23:13:58.412Z,90.50
2018-01-20T23:16:25.363Z,90.50
2018-01-20T23:18:52.109Z,90.10
2018-01-20T23:21:18.853Z,90.60
2018-01-20T23:23:45.701Z,90.60
2018-01-20T23:26:12.424Z,90.20
2018-01-20T23:28:40.024Z,90.40
2018-01-20T23:31:06.861Z,90.30
2018-01-20T23:33:33.914Z,90.00
2018-01-20T23:36:00.664Z,90.60
2018-01-20T23:38:27.407Z,91.30
2018-01-20T23:40:55.077Z,91.20
2018-01-20T23:43:21.925Z,91.20
2018-01-20T23:45:48.879Z,90.90
2018-01-20T23:48:15.828Z,90.80
2018-01-20T23:50:42.573Z,90.60
2018-01-20T23:53:09.536Z,90.60
2018-01-20T23:55:36.677Z,90.70
2018-01-20T23:58:03.334Z,90.60
